Time;durP1;ratioP1;P1;durP2;ratioP2;P2;SDS_P1;SDS_P2;PMS_P1;PMS_P2;Temp;Humidity;BMP_temperature;BMP_pressure;BME280_temperature;BME280_humidity;BME280_pressure;Samples;Min_cycle;Max_cycle;Signal;HPM_P1;HPM_P2
2023/07/31 00:01:46;;;;;;;2.95;1.58;;;;;;;15.47;100.00;100835.25;5012534;28;20528;-61
2023/07/31 00:04:15;;;;;;;4.65;1.35;;;;;;;15.43;100.00;100833.81;5011261;28;20046;-61
2023/07/31 00:06:43;;;;;;;3.95;1.55;;;;;;;15.42;100.00;100831.31;5012604;28;20069;-57
2023/07/31 00:09:13;;;;;;;4.00;1.75;;;;;;;15.41;100.00;100824.34;5010920;28;20108;-57
2023/07/31 00:11:41;;;;;;;3.78;1.70;;;;;;;15.43;100.00;100827.69;5009170;28;20112;-56
2023/07/31 00:14:09;;;;;;;4.97;1.67;;;;;;;15.38;100.00;100814.84;5009378;28;20061;-57
2023/07/31 00:16:38;;;;;;;2.75;1.40;;;;;;;15.30;100.00;100814.69;5006708;28;20041;-57
2023/07/31 00:19:07;;;;;;;5.57;1.48;;;;;;;15.28;100.00;100809.47;5008770;28;20046;-56
2023/07/31 00:21:35;;;;;;;3.15;1.50;;;;;;;15.21;100.00;100803.03;5009477;28;21065;-62
2023/07/31 00:24:04;;;;;;;2.95;1.20;;;;;;;15.14;100.00;100793.94;5011914;28;20421;-61
2023/07/31 00:26:33;;;;;;;2.25;1.10;;;;;;;15.27;100.00;100786.63;5012416;28;20052;-62
2023/07/31 00:29:02;;;;;;;2.17;1.25;;;;;;;15.40;100.00;100788.22;5012206;28;20129;-62
2023/07/31 00:31:30;;;;;;;3.03;1.40;;;;;;;15.35;100.00;100793.91;5012449;28;20054;-61
2023/07/31 00:33:59;;;;;;;2.90;1.33;;;;;;;15.36;100.00;100788.47;5012332;28;20041;-62
2023/07/31 00:36:27;;;;;;;3.53;1.30;;;;;;;15.45;100.00;100794.81;5013002;28;20089;-60
2023/07/31 00:38:55;;;;;;;2.63;1.20;;;;;;;15.52;100.00;100780.03;5012933;28;20053;-61
2023/07/31 00:41:24;;;;;;;2.03;1.20;;;;;;;15.53;100.00;100779.06;5014193;28;20056;-60
2023/07/31 00:43:53;;;;;;;3.75;1.98;;;;;;;15.46;100.00;100779.72;5014494;28;20057;-57
2023/07/31 00:46:22;;;;;;;4.20;1.77;;;;;;;15.47;100.00;100774.28;5015500;28;20046;-56
2023/07/31 00:48:51;;;;;;;6.57;2.88;;;;;;;15.46;100.00;100777.06;5015687;28;20416;-56
2023/07/31 00:51:19;;;;;;;6.05;2.67;;;;;;;15.49;100.00;100768.88;5015320;28;20077;-56
2023/07/31 00:53:48;;;;;;;9.25;3.63;;;;;;;15.47;100.00;100762.84;5015317;28;20100;-56
2023/07/31 00:56:17;;;;;;;12.65;4.63;;;;;;;15.60;100.00;100760.81;5012788;28;20042;-56
2023/07/31 00:58:45;;;;;;;14.07;5.82;;;;;;;15.63;100.00;100759.72;5014687;28;20050;-61
2023/07/31 01:01:15;;;;;;;16.80;6.35;;;;;;;15.63;100.00;100755.25;5015783;28;20050;-60
2023/07/31 01:03:44;;;;;;;20.23;8.15;;;;;;;15.70;100.00;100745.75;5015967;28;20367;-61
2023/07/31 01:06:18;;;;;;;18.50;8.48;;;;;;;15.76;100.00;100746.19;5016143;28;20077;-61
2023/07/31 01:09:02;;;;;;;25.23;9.75;;;;;;;15.76;100.00;100740.91;5015799;28;20041;-56
2023/07/31 01:11:32;;;;;;;22.50;10.13;;;;;;;15.77;100.00;100742.59;5014680;28;20053;-60
2023/07/31 01:14:01;;;;;;;22.88;9.80;;;;;;;15.77;100.00;100742.59;5016247;28;20140;-60
2023/07/31 01:16:30;;;;;;;25.45;10.23;;;;;;;15.83;100.00;100750.88;5015732;28;20077;-56
2023/07/31 01:18:59;;;;;;;30.20;11.32;;;;;;;15.87;100.00;100738.19;5014487;28;20081;-60
2023/07/31 01:22:14;;;;;;;25.33;10.63;;;;;;;15.86;100.00;100736.50;5011698;28;20046;-57
2023/07/31 01:24:56;;;;;;;25.02;10.50;;;;;;;15.87;100.00;100735.53;4991101;28;20061;-55
2023/07/31 01:27:31;;;;;;;23.95;9.82;;;;;;;15.97;100.00;100733.72;5014896;28;20073;-56
2023/07/31 01:30:10;;;;;;;25.25;10.32;;;;;;;16.01;100.00;100739.59;5014393;28;20072;-60
2023/07/31 01:32:41;;;;;;;25.73;11.52;;;;;;;15.97;100.00;100744.31;5015470;28;20037;-60
2023/07/31 01:35:10;;;;;;;25.38;9.57;;;;;;;15.96;100.00;100734.69;5015679;28;20046;-61
2023/07/31 01:37:38;;;;;;;21.52;9.15;;;;;;;15.98;100.00;100726.59;5015553;28;20049;-61
2023/07/31 01:40:08;;;;;;;23.33;10.18;;;;;;;16.02;100.00;100727.97;5015572;28;20053;-61
2023/07/31 01:42:37;;;;;;;25.08;9.32;;;;;;;16.02;100.00;100726.19;5015333;28;20053;-60
2023/07/31 01:45:07;;;;;;;25.67;9.63;;;;;;;16.04;100.00;100737.47;5015496;28;20041;-60
2023/07/31 01:47:35;;;;;;;24.23;9.75;;;;;;;16.03;100.00;100735.84;5013736;28;20556;-56
2023/07/31 01:50:04;;;;;;;24.20;9.43;;;;;;;16.01;100.00;100731.63;5012409;28;20050;-56
2023/07/31 01:52:32;;;;;;;26.70;10.15;;;;;;;16.01;100.00;100726.34;5010076;28;20542;-61
2023/07/31 01:55:00;;;;;;;24.80;9.18;;;;;;;16.01;100.00;100726.34;5015333;28;20057;-60
2023/07/31 01:57:29;;;;;;;24.58;9.15;;;;;;;16.06;100.00;100724.09;5015237;28;20049;-61
2023/07/31 01:59:58;;;;;;;22.95;8.52;;;;;;;16.02;100.00;100722.69;5015660;28;20049;-61
2023/07/31 02:02:26;;;;;;;26.30;8.40;;;;;;;16.00;100.00;100716.69;5015267;28;20420;-61
2023/07/31 02:04:55;;;;;;;20.25;9.93;;;;;;;16.01;100.00;100710.41;5014920;28;20046;-56
2023/07/31 02:07:23;;;;;;;27.33;9.65;;;;;;;16.04;100.00;100705.66;5012583;28;20050;-61
2023/07/31 02:09:51;;;;;;;26.58;9.05;;;;;;;16.02;100.00;100714.72;5014440;28;20046;-61
2023/07/31 02:12:20;;;;;;;22.92;9.25;;;;;;;16.02;100.00;100707.63;5014877;28;20041;-56
2023/07/31 02:14:48;;;;;;;18.27;8.30;;;;;;;16.01;100.00;100700.63;5013976;28;20548;-55
2023/07/31 02:17:18;;;;;;;21.33;8.25;;;;;;;16.06;100.00;100702.88;5010074;28;20107;-56
2023/07/31 02:19:46;;;;;;;21.73;7.97;;;;;;;16.05;100.00;100699.38;5010377;28;20532;-55
2023/07/31 02:22:14;;;;;;;21.00;8.32;;;;;;;15.99;100.00;100693.78;5013636;28;20048;-56
2023/07/31 02:24:43;;;;;;;20.05;8.20;;;;;;;15.98;100.00;100690.31;5013601;28;20085;-56
2023/07/31 02:27:11;;;;;;;19.60;7.93;;;;;;;15.97;100.00;100690.47;5013568;28;20057;-56
2023/07/31 02:29:39;;;;;;;21.58;8.45;;;;;;;15.99;100.00;100702.59;5013434;28;20144;-56
2023/07/31 02:32:08;;;;;;;18.35;7.95;;;;;;;16.01;100.00;100689.19;5013494;28;20058;-56
2023/07/31 02:34:37;;;;;;;21.80;7.97;;;;;;;15.98;100.00;100697.41;5009968;28;20046;-57
2023/07/31 02:37:06;;;;;;;19.77;8.40;;;;;;;15.96;100.00;100686.94;5010798;28;20428;-56
2023/07/31 02:39:34;;;;;;;21.33;8.05;;;;;;;15.95;100.00;100681.78;5007390;28;20060;-57
2023/07/31 02:42:03;;;;;;;19.27;8.30;;;;;;;15.96;100.00;100673.69;5011102;28;20655;-57
2023/07/31 02:44:31;;;;;;;18.98;7.68;;;;;;;15.97;100.00;100680.66;5010339;28;20074;-56
2023/07/31 02:47:00;;;;;;;20.92;7.68;;;;;;;15.98;100.00;100673.53;5010497;28;20568;-56
2023/07/31 02:49:28;;;;;;;22.85;7.97;;;;;;;15.92;100.00;100677.59;5010202;28;20061;-56
2023/07/31 02:51:58;;;;;;;23.13;7.72;;;;;;;15.96;100.00;100684.28;5010049;28;20049;-56
2023/07/31 02:54:26;;;;;;;20.75;8.15;;;;;;;15.98;100.00;100679.72;5008319;28;20434;-56
2023/07/31 02:56:54;;;;;;;25.45;9.45;;;;;;;15.95;100.00;100679.13;5009942;28;20045;-56
2023/07/31 02:59:22;;;;;;;19.40;8.23;;;;;;;16.07;100.00;100679.84;5009001;28;20058;-56
2023/07/31 03:01:50;;;;;;;21.92;8.77;;;;;;;16.01;100.00;100683.91;5013207;28;20053;-56
2023/07/31 03:04:19;;;;;;;20.67;8.65;;;;;;;15.98;100.00;100687.66;5010922;28;20125;-56
2023/07/31 03:06:47;;;;;;;18.63;7.60;;;;;;;15.99;100.00;100684.03;5010128;28;20049;-56
2023/07/31 03:09:17;;;;;;;18.23;8.20;;;;;;;15.99;100.00;100689.34;5008281;28;20519;-55
2023/07/31 03:11:45;;;;;;;21.00;8.70;;;;;;;15.98;100.00;100687.66;5009725;28;20037;-56
2023/07/31 03:14:13;;;;;;;26.35;8.68;;;;;;;15.99;100.00;100681.38;5010611;28;20061;-56
2023/07/31 03:16:45;;;;;;;22.02;8.35;;;;;;;15.99;100.00;100692.00;5009385;28;20520;-56
2023/07/31 03:19:13;;;;;;;22.48;8.63;;;;;;;16.06;100.00;100686.97;5010051;28;20516;-56
2023/07/31 03:21:41;;;;;;;20.75;8.02;;;;;;;16.04;100.00;100686.25;5011896;28;20045;-56
2023/07/31 03:24:11;;;;;;;21.95;8.27;;;;;;;16.01;100.00;100692.69;5012565;28;20422;-56
2023/07/31 03:26:42;;;;;;;20.38;8.48;;;;;;;15.95;100.00;100690.59;5011995;28;20076;-56
2023/07/31 03:29:10;;;;;;;20.05;8.75;;;;;;;16.00;100.00;100696.31;5009273;28;20058;-56
2023/07/31 03:31:38;;;;;;;23.92;8.25;;;;;;;15.97;100.00;100688.63;5009993;28;20050;-60
2023/07/31 03:34:07;;;;;;;19.83;7.57;;;;;;;15.95;100.00;100689.75;5012888;28;20046;-61
2023/07/31 03:36:35;;;;;;;17.73;7.13;;;;;;;15.93;100.00;100691.72;5013212;28;20046;-61
2023/07/31 03:39:04;;;;;;;18.40;7.78;;;;;;;15.95;100.00;100690.59;5013413;28;20038;-60
2023/07/31 03:41:32;;;;;;;22.85;7.97;;;;;;;15.95;100.00;100687.94;5013594;28;20386;-61
2023/07/31 03:44:02;;;;;;;19.00;7.70;;;;;;;15.93;100.00;100686.41;5013256;28;20038;-60
2023/07/31 03:46:33;;;;;;;19.60;6.70;;;;;;;15.93;100.00;100681.94;5013344;28;20049;-61
2023/07/31 03:49:01;;;;;;;18.85;7.20;;;;;;;15.87;100.00;100679.84;5013553;28;20078;-56
2023/07/31 03:51:30;;;;;;;20.42;6.97;;;;;;;15.87;100.00;100671.88;5013336;28;20050;-61
2023/07/31 03:53:58;;;;;;;18.67;6.68;;;;;;;15.92;100.00;100674.13;5012326;28;20056;-62
2023/07/31 03:56:26;;;;;;;18.98;6.90;;;;;;;15.90;100.00;100674.25;5011671;28;20050;-61
2023/07/31 03:58:55;;;;;;;18.33;6.25;;;;;;;15.94;100.00;100673.00;5009139;28;20136;-55
2023/07/31 04:01:24;;;;;;;20.05;7.65;;;;;;;15.88;100.00;100674.41;5008430;28;20053;-56
2023/07/31 04:03:53;;;;;;;20.20;7.10;;;;;;;15.86;100.00;100675.50;5008575;28;20728;-56
2023/07/31 04:06:21;;;;;;;17.83;6.90;;;;;;;15.87;100.00;100671.88;5007969;28;20085;-55
2023/07/31 04:08:49;;;;;;;15.73;6.78;;;;;;;15.91;100.00;100673.28;5010441;28;20046;-56
2023/07/31 04:11:17;;;;;;;22.92;7.68;;;;;;;15.93;100.00;100675.81;5010302;28;20429;-56
2023/07/31 04:13:46;;;;;;;23.42;7.55;;;;;;;15.90;100.00;100666.31;5011940;28;20092;-56
2023/07/31 04:16:14;;;;;;;19.83;7.32;;;;;;;15.85;100.00;100676.47;5011589;28;20070;-56
2023/07/31 04:18:44;;;;;;;20.73;7.85;;;;;;;15.80;100.00;100665.44;5012364;28;20373;-55
2023/07/31 04:21:13;;;;;;;18.92;6.88;;;;;;;15.83;100.00;100666.03;5013609;28;20444;-55
2023/07/31 04:23:41;;;;;;;17.85;7.25;;;;;;;15.85;100.00;100663.22;5011277;28;20404;-55
2023/07/31 04:26:09;;;;;;;18.83;6.82;;;;;;;15.78;100.00;100662.06;5011706;28;20054;-56
2023/07/31 04:28:37;;;;;;;19.40;7.07;;;;;;;15.84;100.00;100659.75;5015318;28;20137;-61
2023/07/31 04:31:06;;;;;;;16.75;6.47;;;;;;;15.83;100.00;100657.25;5014730;28;20049;-60
2023/07/31 04:33:34;;;;;;;16.17;6.57;;;;;;;15.87;100.00;100648.03;5016952;28;20041;-60
2023/07/31 04:36:04;;;;;;;17.17;7.00;;;;;;;15.92;100.00;100658.22;5016354;28;20108;-56
2023/07/31 04:38:33;;;;;;;19.48;6.93;;;;;;;15.95;100.00;100650.81;5015700;28;20058;-55
2023/07/31 04:41:01;;;;;;;16.38;7.20;;;;;;;15.95;100.00;100653.47;5015817;28;20046;-56
2023/07/31 04:43:29;;;;;;;21.38;6.93;;;;;;;15.90;100.00;100650.38;5015476;28;20058;-56
2023/07/31 04:45:57;;;;;;;19.17;7.10;;;;;;;15.96;100.00;100649.00;5014553;28;20813;-55
2023/07/31 04:48:26;;;;;;;15.85;6.35;;;;;;;15.88;100.00;100639.94;5012123;28;20127;-56
2023/07/31 04:50:54;;;;;;;19.85;7.20;;;;;;;15.93;100.00;100639.50;5012121;28;20099;-55
2023/07/31 04:53:24;;;;;;;17.02;6.78;;;;;;;15.96;100.00;100641.88;5011110;28;20058;-55
2023/07/31 04:55:53;;;;;;;16.63;6.97;;;;;;;15.96;100.00;100644.50;5012191;28;20103;-56
2023/07/31 04:58:24;;;;;;;15.65;6.55;;;;;;;16.01;100.00;100641.47;5013769;28;20045;-56
2023/07/31 05:00:52;;;;;;;20.65;6.45;;;;;;;16.03;100.00;100639.50;5011983;28;20807;-55
2023/07/31 05:03:21;;;;;;;16.92;6.93;;;;;;;16.05;100.00;100637.53;5012551;28;20060;-61
2023/07/31 05:05:49;;;;;;;19.15;6.38;;;;;;;16.06;100.00;100636.56;5011716;28;20069;-55
2023/07/31 05:08:17;;;;;;;19.00;7.15;;;;;;;16.00;100.00;100639.78;5012880;28;20049;-61
2023/07/31 05:10:51;;;;;;;21.02;7.38;;;;;;;16.00;100.00;100640.59;5015313;28;20053;-60
2023/07/31 05:13:19;;;;;;;17.88;6.30;;;;;;;16.01;100.00;100636.16;5015882;28;20490;-61
2023/07/31 05:15:49;;;;;;;16.08;7.03;;;;;;;16.02;100.00;100628.06;5015797;28;20112;-60
2023/07/31 05:18:17;;;;;;;19.50;6.82;;;;;;;15.99;100.00;100632.78;5015808;28;20061;-61
2023/07/31 05:20:46;;;;;;;19.23;6.57;;;;;;;16.03;100.00;100628.88;5015746;28;20100;-60
2023/07/31 05:23:14;;;;;;;16.05;6.47;;;;;;;16.08;100.00;100629.31;5015556;28;20049;-60
2023/07/31 05:25:42;;;;;;;15.48;6.32;;;;;;;16.03;100.00;100619.13;5015502;28;20045;-61
2023/07/31 05:28:12;;;;;;;16.25;5.68;;;;;;;16.07;100.00;100614.34;5013619;28;20057;-59
2023/07/31 05:30:41;;;;;;;19.10;5.80;;;;;;;16.04;100.00;100620.78;5014950;28;20409;-56
2023/07/31 05:33:09;;;;;;;16.50;6.55;;;;;;;16.01;100.00;100609.63;5012234;28;20081;-56
2023/07/31 05:35:41;;;;;;;14.23;5.60;;;;;;;16.03;100.00;100612.97;5013948;28;20050;-62
2023/07/31 05:38:10;;;;;;;18.65;6.05;;;;;;;16.01;100.00;100614.94;5016196;28;20046;-61
2023/07/31 05:40:39;;;;;;;15.20;6.88;;;;;;;16.02;100.00;100619.25;5015842;28;20497;-61
2023/07/31 05:43:08;;;;;;;14.50;6.20;;;;;;;16.05;100.00;100613.69;5015992;28;20065;-61
2023/07/31 05:45:38;;;;;;;12.60;5.82;;;;;;;15.99;100.00;100617.75;5016173;28;20445;-61
2023/07/31 05:48:06;;;;;;;16.23;6.13;;;;;;;16.01;100.00;100612.28;5016352;28;20050;-61
2023/07/31 05:50:34;;;;;;;15.80;5.95;;;;;;;16.10;100.00;100610.59;5016351;28;20400;-61
2023/07/31 05:53:03;;;;;;;15.50;5.97;;;;;;;16.02;100.00;100606.84;5014450;28;20469;-62
2023/07/31 05:55:31;;;;;;;14.70;5.88;;;;;;;16.01;100.00;100607.81;5015976;28;20037;-63
2023/07/31 05:57:59;;;;;;;14.20;5.45;;;;;;;16.00;100.00;100611.44;5016012;28;20049;-62
2023/07/31 06:00:28;;;;;;;16.17;5.72;;;;;;;16.01;100.00;100602.50;5015609;28;20532;-62
2023/07/31 06:02:58;;;;;;;14.43;6.45;;;;;;;15.94;100.00;100597.91;5015724;28;20084;-62
2023/07/31 06:05:28;;;;;;;14.45;5.93;;;;;;;15.94;100.00;100593.44;5015420;28;20046;-61
2023/07/31 06:07:57;;;;;;;15.43;5.97;;;;;;;15.99;100.00;100591.22;5015777;28;20046;-61
2023/07/31 06:10:25;;;;;;;14.35;6.18;;;;;;;15.95;100.00;100589.81;5015086;28;20052;-56
2023/07/31 06:12:54;;;;;;;17.55;6.05;;;;;;;15.98;100.00;100584.22;5011468;28;20054;-56
2023/07/31 06:15:22;;;;;;;14.55;5.93;;;;;;;16.10;100.00;100578.75;5013948;28;20038;-62
2023/07/31 06:17:50;;;;;;;16.10;5.35;;;;;;;16.08;100.00;100573.59;5015876;28;20074;-61
2023/07/31 06:20:21;;;;;;;12.10;5.03;;;;;;;16.09;100.00;100574.41;5015206;28;20121;-62
2023/07/31 06:22:49;;;;;;;12.05;5.22;;;;;;;16.08;100.00;100567.47;5015499;28;20497;-61
2023/07/31 06:25:18;;;;;;;11.05;5.22;;;;;;;16.10;100.00;100568.16;5014889;28;20049;-61
2023/07/31 06:27:46;;;;;;;14.00;5.78;;;;;;;16.01;100.00;100562.72;5013615;28;20042;-61
2023/07/31 06:30:15;;;;;;;15.27;5.70;;;;;;;16.11;100.00;100567.19;5015224;28;20058;-62
2023/07/31 06:32:43;;;;;;;13.63;5.38;;;;;;;16.12;100.00;100563.56;5015228;28;20440;-62
2023/07/31 06:35:12;;;;;;;14.00;5.68;;;;;;;16.11;100.00;100556.56;5014191;28;20046;-62
2023/07/31 06:37:44;;;;;;;11.38;4.68;;;;;;;16.18;100.00;100557.66;5014801;28;20049;-62
2023/07/31 06:40:12;;;;;;;11.70;5.03;;;;;;;16.21;100.00;100552.91;5013069;28;20445;-63
2023/07/31 06:42:41;;;;;;;10.85;4.90;;;;;;;16.15;100.00;100552.66;5013706;28;20572;-61
2023/07/31 06:45:10;;;;;;;11.57;5.55;;;;;;;16.17;100.00;100551.53;5013566;28;20081;-61
2023/07/31 06:47:39;;;;;;;10.38;4.60;;;;;;;16.18;100.00;100542.59;4997243;28;20136;-62
2023/07/31 06:50:09;;;;;;;12.43;5.00;;;;;;;16.22;100.00;100540.47;5014722;28;20400;-61
2023/07/31 06:52:37;;;;;;;12.45;4.82;;;;;;;16.23;100.00;100545.63;5014943;28;20045;-61
2023/07/31 06:55:19;;;;;;;10.88;4.53;;;;;;;16.31;100.00;100536.13;5013021;28;20048;-57
2023/07/31 06:57:48;;;;;;;9.88;4.60;;;;;;;16.30;100.00;100529.97;5010119;28;20046;-57
2023/07/31 07:00:17;;;;;;;9.82;4.15;;;;;;;16.34;100.00;100534.00;5009890;28;20112;-57
2023/07/31 07:02:47;;;;;;;9.50;3.70;;;;;;;16.36;100.00;100531.19;5009472;28;20088;-57
2023/07/31 07:05:16;;;;;;;8.20;3.83;;;;;;;16.35;100.00;100525.06;5008931;28;20520;-57
2023/07/31 07:07:45;;;;;;;9.02;3.28;;;;;;;16.38;100.00;100530.06;5012666;28;20034;-56
2023/07/31 07:10:14;;;;;;;8.48;3.45;;;;;;;16.35;100.00;100526.91;5013493;28;20097;-61
2023/07/31 07:12:43;;;;;;;6.78;3.00;;;;;;;16.41;100.00;100525.47;5014186;28;20046;-61
2023/07/31 07:15:11;;;;;;;7.55;3.08;;;;;;;16.52;100.00;100526.13;5013995;28;20041;-56
2023/07/31 07:17:39;;;;;;;6.07;2.58;;;;;;;16.48;100.00;100524.72;5012709;28;20058;-56
2023/07/31 07:20:09;;;;;;;5.97;2.65;;;;;;;16.47;100.00;100524.88;5012725;28;20378;-57
2023/07/31 07:22:37;;;;;;;5.97;2.50;;;;;;;16.43;100.00;100518.19;5012675;28;20046;-57
2023/07/31 07:25:07;;;;;;;6.90;2.30;;;;;;;16.45;100.00;100516.25;5011413;28;20409;-61
2023/07/31 07:27:36;;;;;;;5.63;2.13;;;;;;;16.56;100.00;100508.06;5013150;28;20042;-57
2023/07/31 07:30:07;;;;;;;4.82;2.10;;;;;;;16.68;100.00;100501.59;5012038;28;20064;-57
2023/07/31 07:32:36;;;;;;;3.67;1.92;;;;;;;16.71;100.00;100513.72;5009091;28;20046;-60
2023/07/31 07:35:05;;;;;;;4.18;1.73;;;;;;;16.68;100.00;100517.50;5013645;28;20054;-61
2023/07/31 07:37:33;;;;;;;3.80;1.60;;;;;;;16.69;100.00;100515.72;5012393;28;20046;-57
2023/07/31 07:40:02;;;;;;;3.47;1.60;;;;;;;16.71;100.00;100517.25;5013992;28;20081;-62
2023/07/31 07:42:30;;;;;;;3.55;1.50;;;;;;;16.75;100.00;100514.28;5013835;28;20103;-61
2023/07/31 07:45:00;;;;;;;2.95;1.45;;;;;;;16.74;100.00;100516.09;5013849;28;20053;-62
2023/07/31 07:47:28;;;;;;;4.18;1.52;;;;;;;16.69;100.00;100513.88;5013585;28;20130;-62
2023/07/31 07:49:59;;;;;;;2.80;1.50;;;;;;;16.72;100.00;100512.75;5013087;28;20053;-62
2023/07/31 07:52:27;;;;;;;2.75;1.38;;;;;;;16.73;100.00;100509.94;5013783;28;20496;-62
2023/07/31 07:54:56;;;;;;;2.30;1.23;;;;;;;16.69;100.00;100513.88;5013476;28;20065;-61
2023/07/31 07:57:24;;;;;;;2.58;1.52;;;;;;;16.68;100.00;100501.59;5013363;28;20125;-62
2023/07/31 07:59:52;;;;;;;3.60;1.60;;;;;;;16.68;100.00;100503.41;5013047;28;20103;-61
2023/07/31 08:02:22;;;;;;;2.42;1.40;;;;;;;16.65;100.00;100509.03;5013189;28;20038;-61
2023/07/31 08:04:51;;;;;;;3.20;1.40;;;;;;;16.67;100.00;100499.09;5013228;28;20495;-60
2023/07/31 08:07:20;;;;;;;2.72;1.40;;;;;;;16.71;100.00;100501.31;5012959;28;20041;-61
2023/07/31 08:09:48;;;;;;;2.03;1.30;;;;;;;16.78;100.00;100495.38;5013237;28;20077;-62
2023/07/31 08:12:16;;;;;;;3.47;1.55;;;;;;;16.80;100.00;100493.44;5013136;28;20066;-61
2023/07/31 08:14:44;;;;;;;3.53;1.70;;;;;;;16.84;100.00;100489.50;5013056;28;20057;-61
2023/07/31 08:17:13;;;;;;;3.80;1.95;;;;;;;16.81;100.00;100495.94;5013184;28;20062;-61
2023/07/31 08:19:43;;;;;;;4.75;1.95;;;;;;;16.78;100.00;100490.91;5012484;28;20057;-56
2023/07/31 08:22:12;;;;;;;4.55;1.75;;;;;;;16.84;100.00;100487.66;5009816;28;20116;-57
2023/07/31 08:24:40;;;;;;;3.10;1.70;;;;;;;16.90;100.00;100494.22;5007325;28;20483;-57
2023/07/31 08:27:08;;;;;;;5.25;1.95;;;;;;;16.94;100.00;100486.81;5013079;28;20049;-61
2023/07/31 08:29:37;;;;;;;4.80;2.15;;;;;;;17.01;100.00;100490.53;5012813;28;20058;-60
2023/07/31 08:32:06;;;;;;;4.95;2.38;;;;;;;17.03;100.00;100484.06;5013161;28;20312;-61
2023/07/31 08:34:35;;;;;;;5.85;2.40;;;;;;;16.90;100.00;100488.91;5013224;28;20120;-61
2023/07/31 08:37:05;;;;;;;5.60;2.67;;;;;;;17.01;100.00;100491.34;5012729;28;20046;-61
2023/07/31 08:39:33;;;;;;;4.07;2.10;;;;;;;17.06;100.00;100480.28;5012766;28;20046;-62
2023/07/31 08:42:01;;;;;;;4.50;2.60;;;;;;;17.10;100.00;100480.81;5012885;28;20104;-61
2023/07/31 08:44:31;;;;;;;4.82;2.35;;;;;;;17.13;100.00;100483.19;5012785;28;20056;-62
2023/07/31 08:47:00;;;;;;;4.95;2.70;;;;;;;17.18;100.00;100480.91;5012680;28;20038;-57
2023/07/31 08:49:31;;;;;;;4.25;2.45;;;;;;;17.27;100.00;100485.28;5012355;28;20125;-62
2023/07/31 08:52:00;;;;;;;5.80;2.60;;;;;;;17.26;100.00;100482.78;5013161;28;20489;-62
2023/07/31 08:54:32;;;;;;;5.20;2.67;;;;;;;17.24;100.00;100486.41;5013016;28;20046;-62
2023/07/31 08:57:01;;;;;;;5.80;2.70;;;;;;;17.29;100.00;100485.13;5012816;28;20046;-61
2023/07/31 08:59:32;;;;;;;6.65;2.78;;;;;;;17.31;100.00;100485.81;5012418;28;20046;-57
2023/07/31 09:02:06;;;;;;;3.65;2.30;;;;;;;17.31;100.00;100483.16;5012000;28;20462;-57
2023/07/31 09:04:34;;;;;;;7.50;2.60;;;;;;;17.37;100.00;100475.41;5015695;28;20042;-61
2023/07/31 09:07:04;;;;;;;5.30;2.80;;;;;;;17.39;100.00;100478.75;5016820;28;20402;-62
2023/07/31 09:09:34;;;;;;;5.68;3.13;;;;;;;17.42;100.00;100482.09;5016272;28;20633;-57
2023/07/31 09:12:03;;;;;;;4.50;2.80;;;;;;;17.46;100.00;100478.97;5012719;28;20046;-57
2023/07/31 09:14:32;;;;;;;5.63;2.90;;;;;;;17.42;100.00;100484.75;5011581;28;20053;-57
2023/07/31 09:17:00;;;;;;;4.20;2.55;;;;;;;17.29;100.00;100483.31;5011981;28;20125;-57
2023/07/31 09:19:33;;;;;;;4.68;2.90;;;;;;;17.34;100.00;100475.75;5012091;28;20053;-61
2023/07/31 09:22:02;;;;;;;5.20;3.00;;;;;;;17.33;100.00;100474.06;5016409;28;20121;-61
2023/07/31 09:24:32;;;;;;;5.68;2.88;;;;;;;17.45;100.00;100474.66;5016128;28;20038;-62
2023/07/31 09:27:02;;;;;;;5.53;2.92;;;;;;;17.51;100.00;100478.53;5015935;28;20038;-62
2023/07/31 09:29:31;;;;;;;5.28;3.08;;;;;;;17.49;100.00;100478.69;5009474;28;20912;-56
2023/07/31 09:31:59;;;;;;;6.10;3.45;;;;;;;17.42;100.00;100477.59;5011160;28;20053;-57
2023/07/31 09:34:37;;;;;;;6.35;3.25;;;;;;;17.52;100.00;100462.41;5010763;28;20053;-57
2023/07/31 09:37:06;;;;;;;6.72;3.58;;;;;;;17.47;100.00;100459.38;5015121;28;20152;-62
2023/07/31 09:39:47;;;;;;;4.97;3.10;;;;;;;17.49;100.00;100461.88;5015592;28;20393;-62
2023/07/31 09:42:26;;;;;;;6.22;3.80;;;;;;;17.45;100.00;100455.22;5012459;28;20132;-57
2023/07/31 09:44:55;;;;;;;7.03;3.70;;;;;;;17.36;100.00;100465.78;5011123;28;20088;-57
2023/07/31 09:47:27;;;;;;;6.60;3.63;;;;;;;17.48;100.00;100461.06;5015448;28;20386;-62
2023/07/31 09:49:55;;;;;;;7.38;4.75;;;;;;;17.42;100.00;100444.88;5014889;28;20046;-62
2023/07/31 09:52:26;;;;;;;7.25;4.70;;;;;;;17.43;100.00;100452.72;5015219;28;20061;-62
2023/07/31 09:54:55;;;;;;;9.15;5.38;;;;;;;17.41;100.00;100444.06;5012860;28;20062;-62
2023/07/31 09:57:25;;;;;;;8.20;4.72;;;;;;;17.44;100.00;100457.03;5014188;28;20038;-62
2023/07/31 09:59:54;;;;;;;9.35;5.13;;;;;;;17.50;100.00;100450.25;5013989;28;20054;-61
2023/07/31 10:02:23;;;;;;;7.78;4.80;;;;;;;17.60;100.00;100442.19;5013647;28;20069;-62
2023/07/31 10:04:58;;;;;;;8.18;5.72;;;;;;;17.64;100.00;100444.41;5011667;28;20103;-61
2023/07/31 10:07:29;;;;;;;9.98;5.97;;;;;;;17.83;100.00;100453.16;5011580;28;20038;-56
2023/07/31 10:10:00;;;;;;;10.10;5.32;;;;;;;17.78;100.00;100445.66;5011689;28;20041;-56
2023/07/31 10:12:34;;;;;;;9.90;5.70;;;;;;;17.84;100.00;100449.50;5011720;28;20054;-62
2023/07/31 10:15:03;;;;;;;10.50;5.82;;;;;;;17.83;100.00;100448.69;5010538;28;20092;-57
2023/07/31 10:17:32;;;;;;;9.57;5.97;;;;;;;17.91;100.00;100445.22;5010251;28;20118;-56
2023/07/31 10:20:02;;;;;;;8.85;5.82;;;;;;;17.84;100.00;100457.47;5010831;28;20057;-56
2023/07/31 10:22:31;;;;;;;11.38;7.30;;;;;;;17.98;100.00;100450.78;5010623;28;20501;-57
2023/07/31 10:25:00;;;;;;;10.43;6.82;;;;;;;17.99;100.00;100436.47;5008562;28;20046;-57
2023/07/31 10:27:29;;;;;;;10.93;6.78;;;;;;;18.08;100.00;100439.03;5010529;28;20050;-57
2023/07/31 10:30:00;;;;;;;9.65;6.32;;;;;;;18.03;100.00;100436.00;5010066;28;20049;-56
2023/07/31 10:32:29;;;;;;;9.40;6.82;;;;;;;18.20;100.00;100442.25;5010411;28;20058;-57
2023/07/31 10:34:58;;;;;;;12.07;6.40;;;;;;;18.32;100.00;100442.78;5009895;28;20049;-57
2023/07/31 10:37:29;;;;;;;9.75;6.32;;;;;;;18.34;100.00;100448.78;5010559;28;20128;-57
2023/07/31 10:40:02;;;;;;;8.95;5.97;;;;;;;18.38;100.00;100447.47;5008392;28;20064;-56
2023/07/31 10:42:35;;;;;;;10.15;6.50;;;;;;;18.21;100.00;100446.56;5010242;28;20597;-56
2023/07/31 10:45:07;;;;;;;11.57;6.32;;;;;;;18.26;100.00;100443.44;5010108;28;20073;-56
2023/07/31 10:47:39;;;;;;;11.82;6.20;;;;;;;18.31;100.00;100440.28;5009626;28;20064;-56
2023/07/31 10:50:19;;;;;;;10.07;6.40;;;;;;;18.29;100.00;100442.28;5010284;28;20058;-56
2023/07/31 10:52:52;;;;;;;10.48;6.28;;;;;;;18.40;100.00;100439.31;5010383;28;20405;-57
2023/07/31 10:55:27;;;;;;;12.25;6.35;;;;;;;18.47;100.00;100439.50;5007765;28;20049;-56
2023/07/31 10:57:57;;;;;;;10.40;6.25;;;;;;;18.53;100.00;100437.03;5009607;28;20045;-61
2023/07/31 11:00:29;;;;;;;9.38;6.05;;;;;;;18.58;100.00;100432.06;5009638;28;20057;-58
2023/07/31 11:03:08;;;;;;;10.68;5.50;;;;;;;18.50;100.00;100439.19;5009307;28;20060;-55
2023/07/31 11:05:49;;;;;;;8.82;5.65;;;;;;;18.57;100.00;100437.56;5009219;28;20103;-55
2023/07/31 11:08:20;;;;;;;10.23;5.80;;;;;;;18.56;100.00;100433.22;5008724;28;20433;-55
2023/07/31 11:10:50;;;;;;;9.98;5.90;;;;;;;18.66;100.00;100433.06;5008961;28;20070;-56
2023/07/31 11:13:19;;;;;;;10.48;5.65;;;;;;;18.66;100.00;100423.25;5008831;28;20057;-54
2023/07/31 11:15:49;;;;;;;9.40;6.22;;;;;;;18.67;100.00;100427.59;5009036;28;20100;-55
2023/07/31 11:18:18;;;;;;;11.73;6.05;;;;;;;18.76;100.00;100423.13;5009510;28;20052;-56
2023/07/31 11:20:46;;;;;;;11.98;6.50;;;;;;;18.81;100.00;100430.59;5009940;28;20045;-56
2023/07/31 11:23:18;;;;;;;9.02;5.90;;;;;;;18.78;100.00;100437.09;5011659;28;20519;-56